Time;durP1;ratioP1;P1;durP2;ratioP2;P2;SDS_P1;SDS_P2;PMS_P1;PMS_P2;Temp;Humidity;BMP_temperature;BMP_pressure;BME280_temperature;BME280_humidity;BME280_pressure;Samples;Min_cycle;Max_cycle;Signal;HPM_P1;HPM_P2
2021/05/28 00:02:29;;;;;;;12.57;3.20;;;;;;;20.40;50.52;100679.53;146708;634;46014;-55
2021/05/28 00:05:01;;;;;;;7.60;3.23;;;;;;;20.36;50.85;100678.88;146711;675;46010;-55
2021/05/28 00:07:32;;;;;;;9.02;3.08;;;;;;;20.27;51.21;100674.16;146711;714;46016;-55
2021/05/28 00:10:05;;;;;;;6.60;2.97;;;;;;;20.21;51.03;100679.94;146711;565;46020;-54
2021/05/28 00:12:36;;;;;;;6.93;2.83;;;;;;;20.15;51.08;100673.22;146709;590;46016;-55
2021/05/28 00:15:13;;;;;;;6.57;3.40;;;;;;;20.11;50.92;100669.91;146714;571;45021;-55
2021/05/28 00:17:45;;;;;;;9.82;2.90;;;;;;;20.09;51.02;100676.28;146708;606;46016;-54
2021/05/28 00:20:16;;;;;;;6.60;2.67;;;;;;;20.06;50.69;100677.34;146711;618;46020;-54
2021/05/28 00:22:48;;;;;;;4.15;3.05;;;;;;;20.05;50.46;100674.81;146709;585;45905;-55
2021/05/28 00:25:19;;;;;;;6.47;3.12;;;;;;;20.01;50.55;100676.84;146710;616;46020;-54
2021/05/28 00:27:50;;;;;;;9.60;3.35;;;;;;;19.98;50.47;100679.69;146704;607;48018;-56
2021/05/28 00:30:21;;;;;;;5.75;2.62;;;;;;;19.95;50.88;100678.09;146709;592;46021;-55
2021/05/28 00:32:53;;;;;;;5.18;2.85;;;;;;;19.88;51.37;100681.28;146707;596;46016;-55
2021/05/28 00:35:24;;;;;;;9.07;2.90;;;;;;;19.78;51.25;100675.72;146712;563;46020;-55
2021/05/28 00:37:55;;;;;;;6.28;3.47;;;;;;;19.71;52.27;100663.72;146709;581;46016;-56
2021/05/28 00:40:26;;;;;;;8.18;3.40;;;;;;;19.69;51.78;100666.50;146715;603;45020;-56
2021/05/28 00:42:58;;;;;;;6.57;3.40;;;;;;;19.65;51.85;100658.84;146705;571;46016;-55
2021/05/28 00:45:29;;;;;;;5.43;3.42;;;;;;;19.57;51.97;100656.66;146708;617;46020;-55
2021/05/28 00:48:00;;;;;;;8.18;3.10;;;;;;;19.55;51.97;100650.63;146709;683;46016;-54
2021/05/28 00:50:31;;;;;;;6.62;3.33;;;;;;;19.48;51.66;100659.94;146711;612;46020;-55
2021/05/28 00:53:02;;;;;;;7.53;3.50;;;;;;;19.42;51.94;100661.19;146708;617;46014;-55
2021/05/28 00:55:34;;;;;;;6.60;2.90;;;;;;;19.40;51.62;100663.97;146712;585;46020;-54
2021/05/28 00:58:05;;;;;;;;;;;;;;;19.28;52.32;100662.97;146715;963;46012;-55
2021/05/28 01:00:39;;;;;;;5.82;2.90;;;;;;;19.26;52.18;100661.38;146716;596;47008;-56
2021/05/28 01:03:11;;;;;;;11.27;3.37;;;;;;;19.24;51.82;100664.13;146711;653;46010;-55
2021/05/28 01:05:45;;;;;;;4.70;2.80;;;;;;;19.13;52.04;100663.13;146712;593;46020;-55
2021/05/28 01:08:16;;;;;;;10.05;3.78;;;;;;;19.09;51.88;100668.63;146710;618;46011;-55
2021/05/28 01:10:47;;;;;;;3.35;2.70;;;;;;;19.07;51.92;100670.53;146711;666;46020;-54
2021/05/28 01:13:19;;;;;;;6.60;2.80;;;;;;;19.00;52.31;100668.38;146709;605;46010;-55
2021/05/28 01:15:50;;;;;;;9.50;3.12;;;;;;;18.88;52.33;100670.03;146712;575;46021;-55
2021/05/28 01:18:21;;;;;;;6.68;3.12;;;;;;;18.85;53.09;100675.47;146711;597;46016;-55
2021/05/28 01:20:52;;;;;;;6.50;2.92;;;;;;;18.83;53.09;100672.94;146710;649;46020;-55
2021/05/28 01:23:24;;;;;;;9.40;2.97;;;;;;;18.85;52.39;100668.38;146709;615;46016;-54
2021/05/28 01:25:55;;;;;;;8.50;2.70;;;;;;;18.80;52.27;100661.66;146710;642;46020;-54
2021/05/28 01:28:26;;;;;;;4.37;2.60;;;;;;;18.84;51.71;100657.84;146708;641;46015;-55
2021/05/28 01:30:58;;;;;;;5.53;2.65;;;;;;;18.84;51.89;100660.50;146714;565;46008;-55
2021/05/28 01:33:31;;;;;;;8.27;2.70;;;;;;;18.79;52.12;100650.13;146708;584;46016;-54
2021/05/28 01:36:02;;;;;;;5.03;3.00;;;;;;;18.74;52.39;100655.75;146711;569;46020;-55
2021/05/28 01:38:33;;;;;;;7.72;2.80;;;;;;;18.69;53.24;100649.03;146706;577;46016;-55
2021/05/28 01:41:04;;;;;;;3.78;2.67;;;;;;;18.67;53.04;100656.22;146716;581;46008;-55
2021/05/28 01:43:35;;;;;;;5.93;2.85;;;;;;;18.64;53.13;100645.78;146710;571;46015;-55
2021/05/28 01:46:06;;;;;;;9.02;3.05;;;;;;;18.71;52.95;100647.09;146711;579;46020;-55
2021/05/28 01:48:40;;;;;;;5.00;2.53;;;;;;;18.75;53.00;100646.84;146710;646;46014;-55
2021/05/28 01:51:11;;;;;;;8.68;3.03;;;;;;;18.81;53.08;100642.06;146712;571;46026;-54
2021/05/28 01:53:42;;;;;;;4.00;2.62;;;;;;;18.81;52.91;100650.03;146710;634;46014;-55
2021/05/28 01:56:13;;;;;;;;;;;;;;;18.79;53.05;100642.16;146718;972;45020;-54
2021/05/28 01:58:44;;;;;;;6.87;2.60;;;;;;;18.71;52.70;100655.97;146714;603;46916;-55
2021/05/28 02:01:15;;;;;;;4.32;2.78;;;;;;;18.65;52.84;100658.16;146713;569;46020;-55
2021/05/28 02:03:46;;;;;;;9.10;3.03;;;;;;;18.60;53.28;100666.38;146711;578;46016;-55
2021/05/28 02:06:17;;;;;;;5.50;2.65;;;;;;;18.54;53.35;100654.34;146712;574;46021;-54
2021/05/28 02:08:48;;;;;;;6.50;2.67;;;;;;;18.51;53.16;100656.34;146708;616;46014;-55
2021/05/28 02:11:19;;;;;;;6.90;3.45;;;;;;;18.47;53.48;100658.34;146713;586;46020;-55
2021/05/28 02:13:51;;;;;;;4.45;2.75;;;;;;;18.47;53.56;100660.16;146711;610;46012;-55
2021/05/28 02:16:22;;;;;;;6.15;3.08;;;;;;;18.43;53.80;100655.00;146716;611;46010;-55
2021/05/28 02:18:53;;;;;;;5.00;2.95;;;;;;;18.39;53.77;100653.47;146709;571;46016;-55
2021/05/28 02:21:24;;;;;;;4.03;3.20;;;;;;;18.34;54.16;100668.84;146711;593;46021;-54
2021/05/28 02:23:57;;;;;;;6.22;3.00;;;;;;;18.30;54.32;100664.66;146711;584;46012;-55
2021/05/28 02:26:28;;;;;;;4.47;2.97;;;;;;;18.26;54.25;100669.34;146714;570;46010;-54
2021/05/28 02:28:59;;;;;;;5.50;3.13;;;;;;;18.27;54.10;100672.84;146707;620;46014;-55
2021/05/28 02:31:32;;;;;;;8.65;3.20;;;;;;;18.26;53.93;100668.47;146712;569;46906;-54
2021/05/28 02:34:04;;;;;;;6.75;2.95;;;;;;;18.24;54.01;100667.72;146709;586;46014;-55
2021/05/28 02:36:35;;;;;;;3.87;2.45;;;;;;;18.21;53.89;100667.91;146710;631;46021;-56
2021/05/28 02:39:08;;;;;;;5.00;3.00;;;;;;;18.26;54.20;100657.84;146715;569;46012;-55
2021/05/28 02:41:39;;;;;;;5.82;2.90;;;;;;;18.23;54.56;100658.91;146713;590;46020;-55
2021/05/28 02:44:11;;;;;;;4.22;2.92;;;;;;;18.20;54.79;100663.53;146709;655;46017;-55
2021/05/28 02:46:42;;;;;;;5.00;3.00;;;;;;;18.18;54.66;100658.31;146713;586;46020;-55
2021/05/28 02:49:13;;;;;;;5.12;2.85;;;;;;;18.15;54.59;100650.56;146707;587;48020;-55
2021/05/28 02:51:44;;;;;;;10.97;3.50;;;;;;;18.08;54.87;100655.38;146713;585;46021;-55
2021/05/28 02:54:15;;;;;;;6.28;3.08;;;;;;;18.05;55.10;100660.00;146709;573;46014;-55
2021/05/28 02:56:46;;;;;;;6.10;3.00;;;;;;;18.05;54.88;100647.56;146715;592;46010;-54
2021/05/28 02:59:17;;;;;;;7.28;3.08;;;;;;;18.06;55.06;100654.59;146710;618;46014;-55
2021/05/28 03:01:49;;;;;;;6.40;3.25;;;;;;;17.96;54.84;100636.66;146715;577;45032;-54
2021/05/28 03:04:20;;;;;;;9.10;3.03;;;;;;;18.07;54.66;100650.13;146707;612;46016;-55
2021/05/28 03:06:51;;;;;;;6.78;3.00;;;;;;;18.02;54.86;100661.03;146714;586;46021;-55
2021/05/28 03:09:23;;;;;;;9.32;3.35;;;;;;;17.99;55.15;100663.91;146709;585;46016;-55
2021/05/28 03:11:54;;;;;;;6.70;3.08;;;;;;;18.03;55.35;100660.09;146715;598;45020;-55
2021/05/28 03:14:25;;;;;;;9.02;3.25;;;;;;;18.07;55.64;100664.28;146711;611;46014;-55
2021/05/28 03:16:55;;;;;;;8.48;3.30;;;;;;;18.02;55.30;100663.69;146715;612;46010;-55
2021/05/28 03:19:32;;;;;;;8.68;3.15;;;;;;;17.98;55.20;100656.03;146709;585;46016;-55
2021/05/28 03:25:10;;;;;;;10.13;3.47;;;;;;;17.83;55.52;100655.09;146709;617;46016;-55
2021/05/28 03:27:43;;;;;;;7.28;3.70;;;;;;;17.77;55.87;100658.97;146713;564;46010;-55
2021/05/28 03:30:16;;;;;;;18.20;3.65;;;;;;;17.80;56.14;100673.84;146710;631;46014;-55
2021/05/28 03:32:47;;;;;;;6.15;3.28;;;;;;;17.89;56.19;100670.66;146712;585;46020;-56
2021/05/28 03:35:19;;;;;;;10.45;3.53;;;;;;;17.91;56.67;100684.72;146712;576;46013;-55
2021/05/28 03:37:50;;;;;;;10.40;3.50;;;;;;;17.93;56.81;100690.81;146713;594;45021;-54
2021/05/28 03:40:21;;;;;;;8.20;3.80;;;;;;;18.03;56.29;100688.44;146708;641;46016;-55
2021/05/28 03:42:52;;;;;;;15.48;3.40;;;;;;;18.06;56.10;100691.78;146714;615;46011;-55
2021/05/28 03:45:23;;;;;;;9.57;3.15;;;;;;;18.08;56.18;100691.69;146709;585;46016;-55
2021/05/28 03:47:54;;;;;;;11.80;3.53;;;;;;;18.07;56.14;100693.50;146712;571;46020;-54
2021/05/28 03:50:25;;;;;;;14.73;4.00;;;;;;;18.02;56.51;100687.59;146709;578;46017;-54
2021/05/28 03:52:56;;;;;;;15.68;3.75;;;;;;;18.05;56.50;100683.91;146713;575;46020;-55
2021/05/28 03:55:27;;;;;;;13.90;3.77;;;;;;;18.04;56.90;100680.41;146709;577;46014;-55
2021/05/28 03:57:58;;;;;;;12.95;4.53;;;;;;;18.05;57.21;100673.28;146712;614;46020;-55
2021/05/28 04:00:30;;;;;;;11.32;3.75;;;;;;;18.09;57.16;100678.31;146710;746;46012;-55
2021/05/28 04:03:01;;;;;;;13.45;3.87;;;;;;;18.13;57.37;100680.81;146714;598;46010;-55
2021/05/28 04:05:34;;;;;;;14.00;4.47;;;;;;;18.14;57.55;100679.84;146707;569;46017;-57
2021/05/28 04:08:05;;;;;;;8.65;3.50;;;;;;;18.19;57.54;100680.44;146714;572;46020;-55
2021/05/28 04:10:37;;;;;;;11.68;3.70;;;;;;;18.24;57.66;100684.50;146710;579;46020;-55
2021/05/28 04:13:07;;;;;;;14.05;3.40;;;;;;;18.33;57.69;100688.44;146713;578;46021;-54
2021/05/28 04:15:39;;;;;;;9.40;3.95;;;;;;;18.40;57.63;100692.41;146708;608;47014;-55
2021/05/28 04:18:10;;;;;;;9.40;3.28;;;;;;;18.50;57.12;100691.84;146710;651;46020;-55
2021/05/28 04:20:44;;;;;;;18.80;3.78;;;;;;;18.57;56.88;100695.84;146709;609;46014;-57
2021/05/28 04:23:15;;;;;;;15.35;4.12;;;;;;;18.66;57.20;100694.41;146714;601;46010;-56
2021/05/28 04:25:47;;;;;;;9.75;4.70;;;;;;;18.73;57.10;100693.94;146709;574;46014;-54
2021/05/28 04:28:18;;;;;;;8.70;4.37;;;;;;;18.84;56.78;100695.06;146714;679;45021;-55
2021/05/28 04:30:50;;;;;;;15.13;4.40;;;;;;;18.92;56.75;100698.13;146709;600;46016;-55
2021/05/28 04:33:20;;;;;;;12.93;4.50;;;;;;;19.01;56.40;100694.87;146711;584;46020;-54
2021/05/28 04:35:52;;;;;;;6.10;4.05;;;;;;;19.08;55.71;100696.22;146708;599;46014;-55
2021/05/28 04:38:23;;;;;;;15.13;3.97;;;;;;;19.18;55.54;100703.59;146715;598;46010;-54
2021/05/28 04:40:54;;;;;;;4.60;3.80;;;;;;;19.25;55.33;100704.91;146710;586;46014;-55
2021/05/28 04:43:25;;;;;;;8.73;4.00;;;;;;;19.32;55.06;100700.03;146712;579;46021;-55
2021/05/28 04:45:57;;;;;;;8.15;3.75;;;;;;;19.38;54.90;100704.97;146709;656;46016;-54
2021/05/28 04:48:28;;;;;;;6.97;3.90;;;;;;;19.43;55.30;100695.72;146713;576;46019;-54
2021/05/28 04:50:59;;;;;;;10.18;4.85;;;;;;;19.50;55.94;100698.81;146711;623;46022;-56
2021/05/28 04:53:30;;;;;;;9.02;3.78;;;;;;;19.55;55.74;100699.38;146712;657;46020;-54
2021/05/28 04:56:01;;;;;;;13.90;4.07;;;;;;;19.59;54.64;100705.37;146709;612;46014;-55
2021/05/28 04:58:31;;;;;;;8.65;4.70;;;;;;;19.66;54.82;100697.84;146713;624;46021;-55
2021/05/28 05:01:03;;;;;;;13.57;4.57;;;;;;;19.72;54.31;100706.25;146711;604;46012;-54
2021/05/28 05:03:34;;;;;;;9.88;4.32;;;;;;;19.80;54.31;100703.12;146713;608;46020;-55
2021/05/28 05:06:05;;;;;;;18.98;5.65;;;;;;;19.87;54.36;100703.56;146709;583;46017;-55
2021/05/28 05:08:37;;;;;;;15.65;4.53;;;;;;;19.94;54.14;100699.50;146716;711;45020;-55
2021/05/28 05:11:08;;;;;;;9.20;4.43;;;;;;;20.00;53.91;100699.13;146710;649;46016;-54
2021/05/28 05:13:39;;;;;;;9.88;5.50;;;;;;;20.04;53.41;100699.75;146712;576;46021;-56
2021/05/28 05:16:10;;;;;;;7.82;4.30;;;;;;;20.11;53.07;100693.91;146710;612;46014;-55
2021/05/28 05:18:41;;;;;;;12.37;5.00;;;;;;;20.18;52.43;100698.81;146715;571;46010;-56
2021/05/28 05:21:12;;;;;;;8.05;3.95;;;;;;;20.24;52.01;100693.94;146709;693;46017;-55
2021/05/28 05:23:43;;;;;;;13.15;4.22;;;;;;;20.30;51.50;100687.31;146711;569;46020;-55
2021/05/28 05:26:14;;;;;;;8.73;3.70;;;;;;;20.37;51.82;100699.25;146709;758;47904;-55
2021/05/28 05:28:46;;;;;;;14.52;4.78;;;;;;;20.45;52.06;100694.22;146713;706;46021;-55
2021/05/28 05:31:17;;;;;;;13.75;4.30;;;;;;;20.53;51.80;100695.50;146709;643;46016;-55
2021/05/28 05:33:47;;;;;;;12.97;4.20;;;;;;;20.59;51.62;100700.41;146714;662;46010;-54
2021/05/28 05:36:18;;;;;;;9.38;4.18;;;;;;;20.65;51.46;100694.63;146711;624;46013;-56
2021/05/28 05:38:49;;;;;;;13.50;4.45;;;;;;;20.71;51.44;100694.25;146714;582;46010;-55
2021/05/28 05:41:20;;;;;;;18.45;5.10;;;;;;;20.79;51.43;100691.88;146710;581;46012;-55
2021/05/28 05:43:52;;;;;;;13.18;5.00;;;;;;;20.85;51.34;100695.09;146713;595;46020;-55
2021/05/28 05:46:23;;;;;;;12.85;5.12;;;;;;;20.90;51.77;100700.91;146708;569;46016;-54
2021/05/28 05:48:54;;;;;;;17.62;4.90;;;;;;;20.96;52.31;100701.34;146713;664;46020;-55
2021/05/28 05:51:25;;;;;;;21.25;4.72;;;;;;;21.02;52.13;100696.53;146708;566;46017;-56
2021/05/28 05:53:56;;;;;;;9.93;4.18;;;;;;;21.07;52.34;100708.56;146713;629;46020;-55
2021/05/28 05:56:27;;;;;;;10.23;4.50;;;;;;;21.13;52.85;100708.13;146711;584;46012;-55
2021/05/28 05:58:58;;;;;;;7.95;4.47;;;;;;;21.20;53.07;100710.34;146711;577;46020;-55
2021/05/28 06:01:29;;;;;;;9.60;3.87;;;;;;;21.25;53.58;100710.88;146709;583;46016;-54
2021/05/28 06:04:01;;;;;;;10.57;4.78;;;;;;;21.28;53.87;100708.84;146712;612;46021;-55
2021/05/28 06:06:32;;;;;;;10.63;4.65;;;;;;;21.34;53.43;100717.34;146707;652;46016;-56
2021/05/28 06:09:04;;;;;;;12.60;4.32;;;;;;;21.37;51.99;100723.31;146709;587;46020;-54
2021/05/28 06:11:35;;;;;;;8.75;4.00;;;;;;;21.41;50.31;100723.97;146708;573;46016;-54
2021/05/28 06:14:07;;;;;;;12.70;3.58;;;;;;;21.44;49.47;100724.56;146712;575;46010;-55
2021/05/28 06:16:38;;;;;;;8.55;3.58;;;;;;;21.50;49.52;100725.09;146707;622;46014;-55
2021/05/28 06:19:09;;;;;;;10.02;4.07;;;;;;;21.57;49.67;100729.03;146713;761;46010;-55
2021/05/28 06:21:40;;;;;;;10.23;3.87;;;;;;;21.62;49.07;100730.41;146710;601;46012;-56
2021/05/28 06:24:12;;;;;;;10.07;4.03;;;;;;;21.69;48.30;100751.31;146711;617;46020;-54
2021/05/28 06:26:43;;;;;;;12.43;4.07;;;;;;;21.74;47.72;100747.34;146705;692;46016;-55
2021/05/28 06:29:14;;;;;;;10.38;4.78;;;;;;;21.82;47.63;100749.44;146710;592;46020;-54
2021/05/28 06:31:46;;;;;;;11.52;3.80;;;;;;;21.87;48.02;100746.41;146705;588;48020;-55
2021/05/28 06:34:16;;;;;;;10.82;4.32;;;;;;;21.92;48.08;100745.09;146710;645;46021;-55
2021/05/28 06:36:48;;;;;;;6.55;4.05;;;;;;;21.96;48.34;100745.72;146709;591;46014;-56
2021/05/28 06:39:19;;;;;;;9.10;3.95;;;;;;;22.02;48.60;100741.75;146712;573;46020;-55
2021/05/28 06:41:50;;;;;;;11.35;3.92;;;;;;;22.10;48.64;100742.00;146709;597;46015;-55
2021/05/28 06:44:24;;;;;;;13.23;4.03;;;;;;;22.15;48.70;100729.97;146710;592;46021;-55
2021/05/28 06:46:56;;;;;;;9.38;3.87;;;;;;;22.21;48.19;100722.47;146709;651;46012;-55
2021/05/28 06:49:28;;;;;;;11.93;4.20;;;;;;;22.26;47.19;100725.66;146712;604;46010;-55
2021/05/28 06:51:59;;;;;;;7.75;3.87;;;;;;;22.29;46.56;100731.63;146706;606;46016;-55
2021/05/28 06:54:31;;;;;;;11.15;4.07;;;;;;;22.35;45.51;100719.63;146712;619;46020;-55
2021/05/28 06:57:03;;;;;;;7.45;3.62;;;;;;;22.39;45.58;100721.09;146708;598;46017;-54
2021/05/28 06:59:34;;;;;;;13.27;4.07;;;;;;;22.45;46.37;100717.91;146716;610;46020;-55
2021/05/28 07:02:06;;;;;;;8.32;3.53;;;;;;;22.53;47.30;100714.66;146707;588;46016;-55
2021/05/28 07:04:37;;;;;;;7.32;3.55;;;;;;;22.64;47.42;100706.62;146712;569;46021;-61
2021/05/28 07:07:08;;;;;;;9.93;4.00;;;;;;;22.72;48.67;100711.37;146711;581;45020;-61
2021/05/28 07:09:39;;;;;;;9.52;4.15;;;;;;;22.82;48.82;100696.28;146709;569;46020;-62
2021/05/28 07:12:11;;;;;;;7.60;3.37;;;;;;;22.93;50.03;100691.91;146705;566;46017;-61
2021/05/28 07:14:42;;;;;;;6.15;4.37;;;;;;;22.99;47.35;100692.25;146712;597;46010;-61
2021/05/28 07:17:13;;;;;;;6.75;3.20;;;;;;;23.05;45.10;100693.59;146709;590;46012;-63
2021/05/28 07:19:44;;;;;;;7.15;3.12;;;;;;;23.14;43.23;100684.84;146712;592;46021;-60
2021/05/28 07:22:15;;;;;;;9.80;3.83;;;;;;;23.22;44.94;100686.03;146708;569;46014;-61
2021/05/28 07:24:46;;;;;;;6.72;3.20;;;;;;;23.28;43.38;100689.06;146711;575;46020;-64
2021/05/28 07:27:17;;;;;;;6.68;3.28;;;;;;;23.35;44.19;100684.06;146711;601;46013;-62
2021/05/28 07:29:48;;;;;;;10.02;3.72;;;;;;;23.42;46.09;100689.75;146711;595;46020;-63
2021/05/28 07:32:22;;;;;;;8.82;4.57;;;;;;;23.48;47.40;100687.41;146707;571;46016;-63
2021/05/28 07:34:53;;;;;;;9.57;4.05;;;;;;;23.55;49.90;100692.25;146712;598;46021;-67
2021/05/28 07:37:24;;;;;;;10.57;3.75;;;;;;;23.50;49.70;100676.56;146708;636;46014;-61
2021/05/28 07:39:55;;;;;;;9.35;3.75;;;;;;;23.66;48.89;100687.72;146712;577;46010;-63
2021/05/28 07:42:27;;;;;;;9.82;3.55;;;;;;;23.75;48.88;100687.91;146706;579;46017;-62
2021/05/28 07:45:05;;;;;;;9.57;3.95;;;;;;;23.79;48.05;100692.88;146711;654;46020;-62
2021/05/28 07:47:36;;;;;;;6.60;3.62;;;;;;;23.87;48.17;100694.91;146708;607;46014;-66
2021/05/28 07:50:09;;;;;;;11.93;3.30;;;;;;;23.94;47.01;100697.97;146713;642;46008;-66
2021/05/28 07:52:40;;;;;;;9.82;3.55;;;;;;;24.02;46.89;100687.44;146707;602;46903;-62
2021/05/28 07:55:13;;;;;;;8.65;4.20;;;;;;;24.13;47.83;100690.03;146714;641;45020;-57
2021/05/28 07:57:44;;;;;;;16.73;4.97;;;;;;;24.25;48.88;100688.16;146711;569;46012;-61
2021/05/28 08:00:16;;;;;;;9.68;4.00;;;;;;;24.38;49.89;100690.59;146712;614;46020;-59
2021/05/28 08:02:47;;;;;;;16.67;4.28;;;;;;;24.45;49.71;100693.59;146710;574;46015;-61
2021/05/28 08:05:18;;;;;;;14.67;4.10;;;;;;;24.56;48.94;100685.47;146710;641;46021;-63
2021/05/28 08:07:50;;;;;;;10.25;3.70;;;;;;;24.65;48.54;100691.91;146705;625;46012;-69
2021/05/28 08:10:21;;;;;;;11.55;3.83;;;;;;;24.74;48.05;100688.41;146711;600;46020;-63
2021/05/28 08:12:53;;;;;;;15.55;4.10;;;;;;;24.84;48.14;100685.75;146706;615;46016;-66
2021/05/28 08:15:25;;;;;;;9.52;3.42;;;;;;;24.92;48.45;100685.06;146711;628;46020;-65
2021/05/28 08:17:58;;;;;;;12.68;4.47;;;;;;;24.97;48.74;100683.69;146709;573;45042;-63
2021/05/28 08:20:30;;;;;;;10.45;3.70;;;;;;;25.03;47.99;100682.28;146712;586;46018;-69
2021/05/28 08:23:02;;;;;;;20.85;4.45;;;;;;;25.08;47.30;100682.72;146704;592;46016;-66
2021/05/28 08:25:33;;;;;;;14.18;4.10;;;;;;;25.14;47.42;100684.00;146711;570;46020;-65
2021/05/28 08:28:05;;;;;;;11.55;3.90;;;;;;;25.22;46.34;100683.28;146708;566;46016;-65
2021/05/28 08:30:36;;;;;;;12.10;4.03;;;;;;;25.31;46.29;100679.75;146711;580;46010;-65
2021/05/28 08:33:08;;;;;;;20.50;4.57;;;;;;;25.39;45.24;100679.94;146708;648;46012;-67
2021/05/28 08:35:41;;;;;;;15.40;4.00;;;;;;;25.47;45.31;100682.78;146713;968;45021;-65
2021/05/28 08:38:12;;;;;;;20.95;3.80;;;;;;;25.59;45.50;100679.94;146708;935;46016;-64
2021/05/28 08:40:43;;;;;;;13.77;3.77;;;;;;;25.66;44.62;100684.63;146714;649;45021;-63
2021/05/28 08:43:15;;;;;;;13.35;3.47;;;;;;;25.75;45.10;100691.00;146707;575;46014;-66
2021/05/28 08:45:47;;;;;;;6.37;3.47;;;;;;;25.82;42.09;100697.50;146712;590;45020;-61
2021/05/28 08:48:20;;;;;;;12.60;3.30;;;;;;;25.91;42.97;100689.56;146588;61;62674;-64
2021/05/28 08:50:51;;;;;;;10.02;3.30;;;;;;;25.97;42.83;100691.66;146711;592;46020;-65
2021/05/28 08:53:24;;;;;;;11.45;2.92;;;;;;;26.06;42.14;100687.31;146708;614;46012;-64
2021/05/28 08:55:56;;;;;;;10.05;3.28;;;;;;;26.09;40.65;100687.84;146711;572;45028;-67
2021/05/28 08:58:28;;;;;;;18.37;3.97;;;;;;;26.14;42.27;100690.97;146707;569;47046;-60
2021/05/28 09:00:59;;;;;;;6.25;3.10;;;;;;;26.16;42.02;100689.00;146711;969;46020;-59
2021/05/28 09:03:32;;;;;;;;;;;;;;;26.23;41.78;100685.69;146713;974;46908;-63
2021/05/28 09:06:24;;;;;;;7.97;2.92;;;;;;;26.29;40.96;100694.03;146718;585;46018;-65
2021/05/28 09:09:10;;;;;;;10.43;3.58;;;;;;;26.35;40.75;100689.91;146705;807;48020;-62
2021/05/28 09:12:00;;;;;;;6.05;3.28;;;;;;;26.40;41.56;100689.50;146712;932;46008;-61
2021/05/28 09:14:45;;;;;;;10.77;2.97;;;;;;;26.45;40.87;100682.66;146708;585;46010;-64
2021/05/28 09:17:17;;;;;;;7.70;2.90;;;;;;;26.51;39.66;100682.06;146712;599;46020;-60
2021/05/28 09:19:57;;;;;;;12.20;3.40;;;;;;;26.59;37.52;100678.63;146707;979;46017;-59
2021/05/28 09:22:35;;;;;;;5.12;2.90;;;;;;;26.61;36.23;100675.78;146708;750;46020;-58
2021/05/28 09:25:07;;;;;;;8.90;3.25;;;;;;;26.60;37.61;100674.97;146709;857;46016;-59
2021/05/28 09:27:40;;;;;;;5.87;2.87;;;;;;;26.63;35.73;100684.59;146712;785;46008;-60
2021/05/28 09:30:19;;;;;;;9.10;3.10;;;;;;;26.66;37.65;100684.28;146710;595;46010;-59
2021/05/28 09:32:51;;;;;;;7.28;2.65;;;;;;;26.73;36.27;100669.25;146712;595;46009;-58
2021/05/28 09:35:22;;;;;;;8.48;2.85;;;;;;;26.76;36.55;100668.09;146708;734;46016;-59
2021/05/28 09:37:53;;;;;;;8.98;2.55;;;;;;;26.81;37.25;100672.03;146709;565;46020;-59
2021/05/28 09:40:29;;;;;;;23.08;2.87;;;;;;;26.87;36.68;100675.13;146707;709;46017;-59
2021/05/28 09:43:07;;;;;;;4.65;2.55;;;;;;;26.93;36.45;100677.22;146712;591;45027;-58
2021/05/28 09:45:39;;;;;;;13.85;2.80;;;;;;;27.01;36.21;100671.91;146708;574;46016;-59
2021/05/28 09:48:36;;;;;;;9.48;2.78;;;;;;;27.08;36.43;100664.94;146712;637;46021;-61
2021/05/28 09:51:10;;;;;;;4.87;2.70;;;;;;;27.18;36.02;100664.88;146706;600;46016;-60
2021/05/28 09:53:42;;;;;;;5.03;2.80;;;;;;;27.20;35.68;100662.88;146711;590;46020;-61
2021/05/28 09:56:31;;;;;;;16.77;3.95;;;;;;;27.25;35.62;100665.94;146708;589;46014;-61
2021/05/28 09:59:08;;;;;;;6.82;2.40;;;;;;;27.30;34.78;100658.25;146710;591;46020;-61
2021/05/28 10:02:02;;;;;;;8.80;2.30;;;;;;;27.35;34.85;100653.25;146709;579;46010;-60
2021/05/28 10:04:37;;;;;;;11.68;2.85;;;;;;;27.39;35.08;100648.44;146711;564;46008;-60
2021/05/28 10:07:08;;;;;;;6.60;2.67;;;;;;;27.45;35.27;100641.59;146709;605;46010;-63
2021/05/28 10:09:40;;;;;;;14.60;3.58;;;;;;;27.50;34.60;100631.16;146712;589;45020;-63
2021/05/28 10:12:13;;;;;;;16.62;3.33;;;;;;;27.60;35.20;100631.06;146710;593;46010;-65
2021/05/28 10:14:44;;;;;;;4.25;2.60;;;;;;;27.73;34.75;100631.53;146710;598;45023;-64
2021/05/28 10:17:20;;;;;;;16.52;3.37;;;;;;;27.86;33.60;100623.87;146710;609;46010;-60
2021/05/28 10:19:53;;;;;;;10.02;2.80;;;;;;;28.28;33.39;100626.84;146712;596;46008;-59
2021/05/28 10:22:27;;;;;;;10.48;2.67;;;;;;;28.24;34.20;100620.06;146708;760;46014;-60
2021/05/28 10:25:00;;;;;;;6.78;2.83;;;;;;;28.39;33.81;100613.09;146710;604;46021;-66
2021/05/28 10:27:32;;;;;;;9.35;2.50;;;;;;;28.51;33.26;100611.78;146707;575;46016;-59
2021/05/28 10:30:14;;;;;;;10.15;3.12;;;;;;;29.38;31.20;100618.78;146713;595;45026;-60
2021/05/28 10:33:25;;;;;;;16.12;3.25;;;;;;;29.37;30.97;100611.66;146707;581;46016;-59
2021/05/28 10:36:03;;;;;;;10.82;3.58;;;;;;;29.66;31.10;100602.19;146712;663;46008;-59
2021/05/28 10:38:53;;;;;;;8.82;2.80;;;;;;;29.77;31.23;100592.87;146706;584;46016;-60
2021/05/28 10:41:34;;;;;;;6.15;2.85;;;;;;;29.97;30.17;100585.25;146709;570;45021;-59
2021/05/28 10:44:08;;;;;;;6.18;2.45;;;;;;;30.09;30.41;100583.88;146705;565;46016;-59
2021/05/28 10:46:58;;;;;;;8.30;2.75;;;;;;;30.60;29.69;100575.38;146711;711;45021;-59
2021/05/28 10:49:43;;;;;;;10.32;3.03;;;;;;;32.13;27.43;100572.78;146706;597;46016;-60
2021/05/28 10:52:31;;;;;;;11.20;2.75;;;;;;;31.59;27.54;100571.09;146713;622;46020;-60
2021/05/28 10:55:11;;;;;;;9.60;2.72;;;;;;;32.18;27.46;100563.06;146708;596;46011;-59
2021/05/28 10:57:53;;;;;;;8.38;2.90;;;;;;;32.72;25.46;100569.16;146712;573;46008;-60
2021/05/28 11:00:35;;;;;;;8.05;2.37;;;;;;;33.97;24.08;100560.59;146710;633;46010;-60
2021/05/28 11:03:13;;;;;;;8.68;2.62;;;;;;;33.60;24.45;100570.81;146712;565;46008;-59
2021/05/28 11:05:55;;;;;;;13.18;2.83;;;;;;;35.07;22.56;100561.44;146707;564;46016;-60
2021/05/28 11:08:45;;;;;;;6.32;3.03;;;;;;;35.10;21.80;100571.09;146714;630;45020;-60
2021/05/28 11:11:53;;;;;;;8.13;3.90;;;;;;;33.09;23.49;100567.22;146710;575;46010;-58
2021/05/28 11:14:25;;;;;;;20.37;2.65;;;;;;;32.04;25.79;100574.72;146709;622;46020;-58
2021/05/28 11:17:17;;;;;;;5.00;2.60;;;;;;;31.60;26.12;100561.97;146708;605;46011;-60
2021/05/28 11:19:50;;;;;;;10.98;3.10;;;;;;;31.33;26.09;100558.78;146711;614;46020;-61
2021/05/28 11:22:40;;;;;;;9.48;2.47;;;;;;;31.13;25.99;100562.03;146707;604;46016;-59
2021/05/28 11:25:23;;;;;;;4.93;2.17;;;;;;;30.95;26.59;100561.44;146710;564;46021;-60
2021/05/28 11:28:09;;;;;;;5.53;2.50;;;;;;;30.84;27.30;100550.00;146707;577;46016;-60
2021/05/28 11:30:58;;;;;;;7.68;2.45;;;;;;;30.76;27.49;100552.78;146708;586;46020;-60
2021/05/28 11:33:40;;;;;;;8.70;2.83;;;;;;;30.74;27.63;100543.13;146710;576;46010;-60
2021/05/28 11:36:52;;;;;;;5.82;2.40;;;;;;;31.35;26.95;100551.34;146710;640;46020;-59
2021/05/28 11:39:26;;;;;;;6.82;2.47;;;;;;;31.01;27.09;100539.88;146709;609;46906;-59
2021/05/28 11:42:04;;;;;;;9.25;2.70;;;;;;;30.77;28.51;100537.34;146708;699;47010;-60
2021/05/28 11:44:35;;;;;;;17.00;2.90;;;;;;;30.77;28.11;100538.22;146708;593;46016;-59
2021/05/28 11:47:07;;;;;;;;;;;;;;;30.78;28.87;100539.03;146716;979;47008;-59
2021/05/28 11:49:39;;;;;;;8.07;2.92;;;;;;;31.28;28.27;100528.69;146711;598;46016;-59
2021/05/28 11:52:12;;;;;;;5.95;2.50;;;;;;;31.16;29.21;100525.56;146712;564;46010;-59
2021/05/28 11:54:43;;;;;;;14.60;2.83;;;;;;;31.42;30.04;100525.16;146706;642;46017;-59
2021/05/28 11:57:14;;;;;;;10.25;3.08;;;;;;;31.30;30.63;100515.78;146710;675;46020;-58